Time;durP1;ratioP1;P1;durP2;ratioP2;P2;SDS_P1;SDS_P2;PMS_P1;PMS_P2;Temp;Humidity;BMP_temperature;BMP_pressure;BME280_temperature;BME280_humidity;BME280_pressure;Samples;Min_cycle;Max_cycle;Signal;HPM_P1;HPM_P2
2021/01/21 00:00:51;;;;;;;9.97;8.43;;;4.00;88.10;;;;;;5027951;28;20216;-89
2021/01/21 00:03:17;;;;;;;9.40;8.47;;;4.00;88.40;;;;;;5018951;28;20213;-90
2021/01/21 00:05:43;;;;;;;9.53;8.70;;;4.00;88.20;;;;;;5034964;28;20181;-90
2021/01/21 00:08:08;;;;;;;11.10;9.00;;;4.10;87.90;;;;;;5039302;28;20318;-90
2021/01/21 00:10:34;;;;;;;10.07;9.00;;;4.10;86.90;;;;;;5020344;28;20185;-90
2021/01/21 00:13:00;;;;;;;9.17;8.27;;;4.10;87.10;;;;;;5037944;28;20255;-89
2021/01/21 00:15:33;;;;;;;10.90;7.93;;;4.20;86.80;;;;;;5039062;28;20208;-90
2021/01/21 00:18:00;;;;;;;9.67;8.67;;;4.10;87.30;;;;;;5021020;28;20185;-89
2021/01/21 00:20:26;;;;;;;11.13;9.20;;;4.00;88.00;;;;;;5037142;28;20231;-90
2021/01/21 00:22:56;;;;;;;10.17;8.73;;;4.00;87.90;;;;;;5021663;28;20201;-90
2021/01/21 00:25:22;;;;;;;9.73;8.13;;;4.10;88.10;;;;;;5039604;28;20180;-90
2021/01/21 00:27:47;;;;;;;8.67;7.80;;;4.00;88.10;;;;;;5039687;28;20579;-89
2021/01/21 00:30:14;;;;;;;9.97;8.93;;;4.00;88.30;;;;;;5022343;28;20195;-90
2021/01/21 00:32:39;;;;;;;10.20;8.53;;;4.10;87.80;;;;;;5021244;28;20181;-89
2021/01/21 00:35:06;;;;;;;10.43;8.30;;;4.20;87.60;;;;;;5021296;28;20197;-90
2021/01/21 00:37:32;;;;;;;9.23;8.33;;;4.30;87.00;;;;;;5020065;28;20213;-90
2021/01/21 00:39:57;;;;;;;9.93;8.57;;;4.20;87.10;;;;;;5021234;28;20244;-89
2021/01/21 00:42:24;;;;;;;9.63;8.10;;;4.30;87.40;;;;;;5021915;28;20249;-90
2021/01/21 00:44:49;;;;;;;9.87;8.20;;;4.20;87.30;;;;;;5021743;28;20277;-90
2021/01/21 00:47:15;;;;;;;9.30;8.40;;;4.30;87.20;;;;;;5022557;28;20201;-90
2021/01/21 00:49:41;;;;;;;9.40;8.50;;;4.30;87.50;;;;;;5004818;28;20190;-91
2021/01/21 00:52:09;;;;;;;9.83;8.80;;;4.30;87.00;;;;;;5004355;28;20288;-90
2021/01/21 00:54:35;;;;;;;9.83;8.50;;;4.30;87.50;;;;;;5021511;28;20721;-91
2021/01/21 00:57:00;;;;;;;9.13;8.23;;;4.30;88.00;;;;;;5022317;28;20269;-90
2021/01/21 00:59:26;;;;;;;13.17;11.37;;;4.20;88.00;;;;;;5022232;28;20642;-90
2021/01/21 01:01:52;;;;;;;11.27;9.90;;;4.30;87.20;;;;;;5004587;28;20242;-89
2021/01/21 01:04:18;;;;;;;12.53;11.07;;;4.30;87.10;;;;;;5021967;28;20197;-90
2021/01/21 01:06:44;;;;;;;14.97;12.13;;;4.30;87.50;;;;;;5005153;28;20190;-90
2021/01/21 01:09:13;;;;;;;11.03;9.93;;;4.40;86.60;;;;;;5007660;28;20181;-90
2021/01/21 01:11:39;;;;;;;9.63;8.67;;;4.50;86.90;;;;;;5007218;28;20257;-91
2021/01/21 01:14:05;;;;;;;9.80;7.77;;;4.50;86.50;;;;;;5031464;28;20240;-90
2021/01/21 01:16:30;;;;;;;9.63;8.30;;;4.40;86.80;;;;;;5041758;28;20196;-91
2021/01/21 01:18:56;;;;;;;9.17;8.33;;;4.40;86.70;;;;;;5023236;28;20203;-91
2021/01/21 01:21:22;;;;;;;9.20;8.33;;;4.40;86.90;;;;;;5028556;28;20209;-91
2021/01/21 01:23:47;;;;;;;9.10;8.20;;;4.40;87.00;;;;;;5002359;28;20210;-91
2021/01/21 01:26:13;;;;;;;9.33;7.90;;;4.40;86.90;;;;;;5019650;28;20523;-91
2021/01/21 01:28:41;;;;;;;10.27;9.17;;;4.40;87.00;;;;;;5020499;28;20189;-90
2021/01/21 01:31:07;;;;;;;11.03;9.37;;;4.40;88.40;;;;;;5019640;28;20181;-90
2021/01/21 01:33:33;;;;;;;13.43;9.80;;;4.40;86.30;;;;;;5019509;28;20194;-90
2021/01/21 01:35:59;;;;;;;12.93;9.87;;;4.40;86.00;;;;;;5020143;28;20196;-92
2021/01/21 01:38:24;;;;;;;10.07;8.50;;;4.40;86.20;;;;;;5002587;28;20219;-92
2021/01/21 01:40:53;;;;;;;12.37;9.77;;;4.40;86.50;;;;;;5002169;28;20209;-90
2021/01/21 01:43:19;;;;;;;10.43;8.70;;;4.50;86.10;;;;;;5018701;28;20202;-91
2021/01/21 01:45:45;;;;;;;8.43;7.57;;;4.40;86.80;;;;;;5018136;28;20200;-91
2021/01/21 01:48:11;;;;;;;8.33;7.47;;;4.30;86.50;;;;;;5018954;28;20217;-91
2021/01/21 01:50:37;;;;;;;9.23;7.53;;;4.50;85.00;;;;;;5019414;28;20194;-91
2021/01/21 01:53:04;;;;;;;8.70;7.80;;;4.50;85.70;;;;;;5031773;28;20239;-91
2021/01/21 01:55:30;;;;;;;8.93;6.93;;;4.50;84.70;;;;;;5039825;28;20180;-90
2021/01/21 01:57:56;;;;;;;8.20;7.20;;;4.50;85.10;;;;;;5039277;28;20191;-91
2021/01/21 02:00:22;;;;;;;8.37;7.50;;;4.50;85.20;;;;;;5020141;28;20218;-90
2021/01/21 02:02:52;;;;;;;8.23;7.43;;;4.40;85.70;;;;;;5019126;28;20272;-89
2021/01/21 02:05:18;;;;;;;9.03;7.67;;;4.60;82.70;;;;;;5025603;28;20476;-91
2021/01/21 02:07:44;;;;;;;7.93;7.10;;;4.60;84.80;;;;;;5048732;28;20184;-90
2021/01/21 02:10:16;;;;;;;7.27;6.53;;;4.40;85.70;;;;;;5029061;28;20182;-90
2021/01/21 02:13:06;;;;;;;8.50;7.37;;;4.40;85.60;;;;;;5016658;28;20182;-92
2021/01/21 02:15:54;;;;;;;8.37;7.00;;;4.40;86.30;;;;;;5016764;28;20177;-91
2021/01/21 02:18:26;;;;;;;8.43;7.53;;;4.40;85.70;;;;;;5017035;28;20299;-91
2021/01/21 02:20:55;;;;;;;7.70;6.57;;;4.30;86.80;;;;;;5015880;28;20221;-91
2021/01/21 02:23:39;;;;;;;9.87;7.37;;;4.20;87.00;;;;;;5015271;28;20256;-90
2021/01/21 02:26:16;;;;;;;9.57;7.03;;;4.40;85.80;;;;;;5035813;28;20173;-90
2021/01/21 02:29:03;;;;;;;7.70;6.53;;;4.40;86.00;;;;;;5036444;28;20172;-89
2021/01/21 02:31:41;;;;;;;8.60;7.27;;;4.40;86.80;;;;;;5018311;28;20263;-89
2021/01/21 02:34:09;;;;;;;7.30;6.60;;;4.30;87.00;;;;;;5037400;28;20196;-89
2021/01/21 02:36:44;;;;;;;8.97;7.40;;;4.30;87.20;;;;;;5040604;28;20183;-89
2021/01/21 02:39:12;;;;;;;8.10;7.00;;;4.20;87.70;;;;;;5018769;28;20190;-91
2021/01/21 02:41:38;;;;;;;8.30;6.50;;;4.30;87.70;;;;;;5016623;28;20201;-90
2021/01/21 02:44:04;;;;;;;8.10;7.30;;;4.30;88.20;;;;;;5018176;28;20291;-89
2021/01/21 02:46:30;;;;;;;7.30;6.60;;;4.30;88.10;;;;;;5035799;28;20261;-89
2021/01/21 02:48:58;;;;;;;7.87;6.57;;;4.40;87.90;;;;;;5021091;28;20181;-89
2021/01/21 02:51:42;;;;;;;7.90;7.10;;;4.40;87.30;;;;;;5021351;28;20208;-90
2021/01/21 02:54:24;;;;;;;8.73;6.97;;;4.30;87.70;;;;;;5019008;28;20209;-89
2021/01/21 02:56:57;;;;;;;7.80;7.00;;;4.30;86.80;;;;;;5018698;28;20201;-89
2021/01/21 02:59:30;;;;;;;9.23;7.17;;;4.30;86.50;;;;;;5018777;28;20213;-90
2021/01/21 03:01:56;;;;;;;7.83;7.03;;;4.40;86.50;;;;;;5019617;28;20209;-90
2021/01/21 03:04:24;;;;;;;8.47;6.70;;;4.40;86.10;;;;;;5018934;28;20220;-90
2021/01/21 03:06:55;;;;;;;6.93;6.23;;;4.40;85.90;;;;;;5039989;28;20188;-91
2021/01/21 03:09:21;;;;;;;7.27;6.53;;;4.60;86.30;;;;;;5023016;28;20181;-90
2021/01/21 03:11:49;;;;;;;6.37;5.77;;;4.40;85.70;;;;;;5022386;28;20192;-90
2021/01/21 03:14:16;;;;;;;6.93;6.23;;;4.40;86.70;;;;;;5039868;28;20268;-91
2021/01/21 03:16:41;;;;;;;7.23;6.53;;;4.40;86.10;;;;;;5038365;28;20209;-91
2021/01/21 03:19:07;;;;;;;6.67;6.07;;;4.40;86.50;;;;;;5038987;28;20244;-92
2021/01/21 03:21:33;;;;;;;6.73;5.93;;;4.40;86.20;;;;;;5009464;28;20201;-91
2021/01/21 03:23:59;;;;;;;7.10;6.40;;;4.50;86.70;;;;;;5004601;28;20205;-91
2021/01/21 03:26:25;;;;;;;6.30;5.67;;;4.40;86.30;;;;;;5005542;28;20757;-91
2021/01/21 03:28:50;;;;;;;6.63;5.97;;;4.40;86.80;;;;;;5022280;28;20180;-90
2021/01/21 03:31:16;;;;;;;6.67;5.97;;;4.40;87.40;;;;;;5020402;28;20184;-91
2021/01/21 03:33:41;;;;;;;8.23;6.20;;;4.40;86.90;;;;;;5019680;28;20209;-90
2021/01/21 03:36:07;;;;;;;7.07;5.53;;;4.30;87.90;;;;;;5020205;28;20186;-89
2021/01/21 03:38:33;;;;;;;6.70;6.10;;;4.30;88.10;;;;;;5019886;28;20174;-90
2021/01/21 03:40:59;;;;;;;7.00;5.80;;;4.30;87.60;;;;;;5001658;28;20217;-92
2021/01/21 03:43:24;;;;;;;7.60;6.23;;;4.30;88.20;;;;;;5018235;28;20714;-90
2021/01/21 03:45:50;;;;;;;6.10;5.53;;;4.10;88.40;;;;;;5034224;28;20252;-90
2021/01/21 03:48:16;;;;;;;6.37;5.73;;;4.10;88.70;;;;;;5024083;28;20181;-90
2021/01/21 03:50:43;;;;;;;6.53;5.63;;;4.10;88.80;;;;;;5011641;28;20217;-90
2021/01/21 03:53:11;;;;;;;6.87;6.17;;;4.10;88.50;;;;;;5020345;28;20202;-89
2021/01/21 03:55:37;;;;;;;7.20;5.93;;;4.30;87.70;;;;;;5021458;28;20181;-90
2021/01/21 03:58:03;;;;;;;6.47;5.87;;;4.20;87.80;;;;;;5003161;28;20272;-90
2021/01/21 04:00:28;;;;;;;7.33;6.03;;;4.30;87.00;;;;;;5021172;28;20206;-90
2021/01/21 04:02:54;;;;;;;7.50;5.20;;;4.20;87.70;;;;;;5028588;28;20208;-90
2021/01/21 04:05:20;;;;;;;6.50;5.90;;;4.30;87.30;;;;;;5038518;28;20190;-89
2021/01/21 04:07:46;;;;;;;7.47;5.63;;;4.30;87.40;;;;;;5022047;28;20220;-90
2021/01/21 04:10:11;;;;;;;6.53;5.83;;;4.20;87.70;;;;;;5038633;28;20220;-90
2021/01/21 04:12:37;;;;;;;8.10;6.10;;;4.20;87.90;;;;;;5038844;28;20221;-89
2021/01/21 04:15:04;;;;;;;7.37;6.67;;;4.30;87.40;;;;;;5037265;28;20224;-90
2021/01/21 04:17:30;;;;;;;8.10;6.27;;;4.20;88.00;;;;;;5034299;28;20197;-90
2021/01/21 04:19:55;;;;;;;6.17;5.67;;;4.20;87.80;;;;;;5004799;28;20187;-90
2021/01/21 04:22:21;;;;;;;6.83;5.90;;;4.20;88.20;;;;;;5021563;28;20182;-91
2021/01/21 04:24:47;;;;;;;6.10;5.43;;;4.10;88.60;;;;;;5021072;28;20284;-90
2021/01/21 04:27:12;;;;;;;6.83;6.17;;;4.20;88.70;;;;;;5020360;28;20236;-90
2021/01/21 04:29:38;;;;;;;6.27;5.67;;;4.10;87.40;;;;;;5037079;28;20181;-88
2021/01/21 04:32:04;;;;;;;8.27;6.03;;;4.10;87.70;;;;;;5023881;28;20235;-91
2021/01/21 04:34:30;;;;;;;7.10;6.40;;;4.10;87.10;;;;;;5041860;28;20205;-90
2021/01/21 04:36:56;;;;;;;6.50;5.80;;;4.00;87.70;;;;;;5050580;28;20177;-89
2021/01/21 04:39:21;;;;;;;6.33;5.60;;;3.90;88.20;;;;;;5039174;28;20204;-89
2021/01/21 04:41:47;;;;;;;6.47;5.80;;;3.90;88.30;;;;;;5032497;28;20232;-89
2021/01/21 04:44:13;;;;;;;6.07;5.47;;;3.90;88.20;;;;;;5034494;28;20286;-90
2021/01/21 04:46:39;;;;;;;5.80;5.13;;;3.90;87.70;;;;;;5015318;28;20568;-88
2021/01/21 04:49:06;;;;;;;4.80;4.33;;;3.80;88.50;;;;;;5021248;28;20178;-90
2021/01/21 04:51:32;;;;;;;5.03;4.53;;;3.90;87.70;;;;;;5021014;28;20218;-90
2021/01/21 04:54:01;;;;;;;5.50;4.33;;;4.00;86.60;;;;;;5002826;28;20205;-90
2021/01/21 04:56:37;;;;;;;5.37;4.77;;;4.10;84.60;;;;;;5036171;28;20192;-90
2021/01/21 04:59:04;;;;;;;4.40;3.97;;;4.40;80.30;;;;;;5022514;28;20637;-89
2021/01/21 05:01:32;;;;;;;4.70;3.67;;;4.60;78.10;;;;;;5022498;28;20327;-90
2021/01/21 05:03:57;;;;;;;4.73;3.60;;;4.90;76.20;;;;;;5040258;28;20247;-89
2021/01/21 05:06:23;;;;;;;3.60;3.20;;;5.10;75.30;;;;;;5022946;28;20205;-90
2021/01/21 05:08:51;;;;;;;3.33;2.60;;;5.30;73.50;;;;;;5016588;28;20243;-89
2021/01/21 05:11:16;;;;;;;4.10;2.50;;;6.00;70.00;;;;;;5019566;28;20591;-91
2021/01/21 05:13:42;;;;;;;3.67;2.23;;;6.20;68.10;;;;;;5017697;28;20221;-91
2021/01/21 05:16:08;;;;;;;2.37;2.10;;;6.70;64.90;;;;;;5020476;28;20190;-90
2021/01/21 05:18:36;;;;;;;4.00;2.00;;;7.60;60.90;;;;;;5020340;28;20193;-90
2021/01/21 05:21:04;;;;;;;2.10;1.90;;;7.80;59.70;;;;;;5020528;28;20213;-90
2021/01/21 05:23:30;;;;;;;2.63;1.90;;;8.00;59.20;;;;;;5020822;28;20213;-90
2021/01/21 05:25:59;;;;;;;2.37;1.60;;;8.10;59.30;;;;;;5022439;28;20190;-93
2021/01/21 05:28:27;;;;;;;1.60;1.50;;;8.50;57.90;;;;;;5022115;28;20958;-91
2021/01/21 05:30:53;;;;;;;1.70;1.60;;;8.80;55.50;;;;;;5021849;28;20192;-91
2021/01/21 05:33:21;;;;;;;5.33;1.60;;;9.30;53.20;;;;;;5017903;28;20243;-91
2021/01/21 05:35:52;;;;;;;2.33;1.60;;;9.70;52.90;;;;;;5020849;28;20182;-92
2021/01/21 05:38:17;;;;;;;3.20;1.70;;;9.70;52.70;;;;;;5020607;28;20184;-92
2021/01/21 05:40:47;;;;;;;2.13;1.83;;;10.10;50.80;;;;;;5021981;28;20209;-91
2021/01/21 05:43:14;;;;;;;3.73;1.63;;;10.30;50.10;;;;;;5019705;28;20198;-91
2021/01/21 05:45:44;;;;;;;2.17;1.50;;;10.50;48.90;;;;;;5021125;28;20196;-91
2021/01/21 05:48:13;;;;;;;3.30;1.67;;;10.60;49.00;;;;;;5020817;28;20170;-91
2021/01/21 05:50:54;;;;;;;1.83;1.73;;;10.70;48.90;;;;;;5019894;28;20189;-92
2021/01/21 05:53:20;;;;;;;1.60;1.50;;;10.60;49.90;;;;;;5007740;28;20240;-91
2021/01/21 05:55:46;;;;;;;3.50;1.83;;;10.80;48.80;;;;;;5002898;28;20204;-92
2021/01/21 05:58:14;;;;;;;1.60;1.50;;;10.90;49.20;;;;;;5018541;28;20201;-92
2021/01/21 06:00:46;;;;;;;3.57;1.60;;;10.80;49.10;;;;;;5001888;28;20861;-92
2021/01/21 06:03:12;;;;;;;5.00;1.70;;;11.00;49.50;;;;;;5001276;28;20252;-91
2021/01/21 06:05:42;;;;;;;2.13;1.93;;;11.00;49.40;;;;;;5020509;28;20186;-93
2021/01/21 06:08:11;;;;;;;2.93;1.53;;;11.20;48.40;;;;;;5039239;28;20244;-92
2021/01/21 06:10:41;;;;;;;1.73;1.40;;;11.20;49.70;;;;;;5039043;28;20247;-91
2021/01/21 06:13:07;;;;;;;1.50;1.40;;;11.20;49.70;;;;;;5037781;28;20212;-92
2021/01/21 06:15:36;;;;;;;2.50;1.80;;;11.40;49.00;;;;;;5027965;28;20185;-89
2021/01/21 06:18:02;;;;;;;1.80;1.70;;;11.40;49.30;;;;;;5025563;28;20191;-91
2021/01/21 06:20:27;;;;;;;1.87;1.53;;;11.40;49.00;;;;;;5029359;28;20225;-90
2021/01/21 06:22:56;;;;;;;1.77;1.67;;;11.50;50.00;;;;;;5026275;28;20204;-90
2021/01/21 06:25:22;;;;;;;2.07;1.80;;;11.50;49.60;;;;;;5018176;28;20658;-91
2021/01/21 06:27:52;;;;;;;2.17;1.97;;;11.60;50.10;;;;;;5000932;28;20185;-90
2021/01/21 06:30:20;;;;;;;1.80;1.70;;;11.60;50.90;;;;;;5000744;28;20247;-90
2021/01/21 06:33:04;;;;;;;1.43;1.33;;;11.60;50.50;;;;;;5017377;28;20178;-91
2021/01/21 06:35:41;;;;;;;1.57;1.37;;;11.70;50.90;;;;;;5020773;28;20612;-90
2021/01/21 06:38:22;;;;;;;1.50;1.40;;;11.60;51.90;;;;;;5017553;28;20220;-91
2021/01/21 06:40:51;;;;;;;1.53;1.43;;;11.60;51.70;;;;;;5001183;28;20209;-91
2021/01/21 06:43:18;;;;;;;1.87;1.60;;;11.70;51.70;;;;;;5018917;28;20201;-92
2021/01/21 06:45:44;;;;;;;1.60;1.50;;;11.50;53.10;;;;;;5019195;28;20181;-91
2021/01/21 06:48:13;;;;;;;1.57;1.47;;;11.60;52.70;;;;;;5018889;28;20268;-91
2021/01/21 06:50:41;;;;;;;1.67;1.40;;;11.60;53.00;;;;;;5025027;28;20573;-91
2021/01/21 06:53:10;;;;;;;1.67;1.40;;;11.80;52.60;;;;;;5018342;28;20210;-91
2021/01/21 06:55:38;;;;;;;1.93;1.37;;;11.70;53.90;;;;;;5018416;28;20189;-90
2021/01/21 06:58:04;;;;;;;1.60;1.50;;;11.70;53.20;;;;;;5019188;28;20198;-91
2021/01/21 07:00:46;;;;;;;1.97;1.50;;;11.70;53.70;;;;;;5020551;28;20712;-91
2021/01/21 07:03:30;;;;;;;1.27;1.27;;;11.70;53.70;;;;;;5017166;28;20282;-92
2021/01/21 07:05:57;;;;;;;1.53;1.40;;;11.70;53.90;;;;;;5012421;28;20177;-92
2021/01/21 07:08:23;;;;;;;1.70;1.33;;;11.80;54.00;;;;;;5020453;28;20197;-91
2021/01/21 07:10:49;;;;;;;2.57;1.40;;;11.80;54.70;;;;;;5024086;28;20202;-90
2021/01/21 07:13:20;;;;;;;2.93;1.50;;;11.60;55.50;;;;;;5001013;28;20776;-88
2021/01/21 07:15:50;;;;;;;2.23;1.50;;;11.60;56.30;;;;;;5016288;28;20174;-87
2021/01/21 07:18:28;;;;;;;1.30;1.27;;;11.70;55.70;;;;;;5017133;28;20182;-87
2021/01/21 07:21:16;;;;;;;1.50;1.40;;;11.80;56.00;;;;;;5031127;28;20236;-88
2021/01/21 07:23:49;;;;;;;1.40;1.30;;;11.70;56.00;;;;;;5037477;28;20203;-87
2021/01/21 07:26:27;;;;;;;1.83;1.50;;;11.70;56.00;;;;;;5037300;28;20169;-90
2021/01/21 07:28:59;;;;;;;1.60;1.40;;;11.70;55.90;;;;;;5037813;28;20187;-87
2021/01/21 07:31:26;;;;;;;3.60;1.60;;;11.70;55.80;;;;;;5007645;28;20181;-86
2021/01/21 07:34:21;;;;;;;1.50;1.40;;;11.70;55.70;;;;;;5018687;28;20464;-88
2021/01/21 07:36:46;;;;;;;2.07;1.40;;;11.80;55.20;;;;;;5018628;28;20236;-88
2021/01/21 07:39:12;;;;;;;1.20;1.20;;;11.80;55.30;;;;;;5019278;28;20190;-88
2021/01/21 07:41:40;;;;;;;1.43;1.33;;;11.80;55.10;;;;;;5021387;28;20576;-88
2021/01/21 07:44:06;;;;;;;2.10;1.30;;;11.80;55.40;;;;;;5017820;28;20201;-88
2021/01/21 07:46:32;;;;;;;2.10;1.63;;;11.90;55.00;;;;;;5003770;28;20240;-88
2021/01/21 07:49:29;;;;;;;1.20;1.20;;;12.00;55.20;;;;;;5018994;28;20239;-88
2021/01/21 07:52:01;;;;;;;4.00;2.07;;;12.00;55.30;;;;;;5019195;28;20263;-87
2021/01/21 07:54:31;;;;;;;1.30;1.20;;;12.00;55.70;;;;;;5016670;28;20193;-87
2021/01/21 07:56:57;;;;;;;1.40;1.30;;;12.00;56.00;;;;;;5017737;28;20190;-88
2021/01/21 07:59:23;;;;;;;1.40;1.30;;;12.00;56.00;;;;;;5027140;28;20181;-88
2021/01/21 08:01:56;;;;;;;1.73;1.13;;;12.00;56.50;;;;;;5019492;28;20211;-88
2021/01/21 08:04:22;;;;;;;1.77;1.10;;;12.00;56.50;;;;;;5019384;28;20213;-87
2021/01/21 08:06:57;;;;;;;1.43;1.30;;;12.00;56.80;;;;;;5019334;28;20189;-87
2021/01/21 08:09:24;;;;;;;1.43;1.37;;;12.00;57.10;;;;;;5019593;28;20203;-87
2021/01/21 08:11:53;;;;;;;1.20;1.20;;;12.00;56.80;;;;;;5019693;28;20231;-87
2021/01/21 08:14:19;;;;;;;2.40;1.40;;;12.00;57.30;;;;;;5018969;28;20217;-87
2021/01/21 08:16:48;;;;;;;1.83;1.40;;;12.00;57.20;;;;;;5019294;28;20545;-87
2021/01/21 08:19:14;;;;;;;3.10;1.47;;;12.00;57.70;;;;;;5018545;28;20522;-87
2021/01/21 08:21:40;;;;;;;1.83;1.40;;;11.90;58.60;;;;;;5006855;28;20204;-87
2021/01/21 08:24:08;;;;;;;1.17;1.17;;;11.80;59.00;;;;;;5020082;28;20673;-88
2021/01/21 08:26:34;;;;;;;1.10;1.10;;;11.90;58.80;;;;;;5018768;28;20174;-87
2021/01/21 08:29:01;;;;;;;1.63;1.50;;;12.00;58.20;;;;;;5018905;28;20178;-88
2021/01/21 08:31:47;;;;;;;1.13;1.10;;;12.00;59.00;;;;;;5014600;28;20182;-86
2021/01/21 08:34:24;;;;;;;2.53;1.40;;;12.00;59.00;;;;;;5015565;28;20220;-88
2021/01/21 08:37:00;;;;;;;1.30;1.20;;;12.10;59.20;;;;;;5018329;28;20244;-87
2021/01/21 08:39:26;;;;;;;1.20;1.20;;;12.10;58.90;;;;;;5018556;28;20216;-86
2021/01/21 08:41:52;;;;;;;1.30;1.20;;;12.10;58.70;;;;;;5022129;28;20704;-87
2021/01/21 08:44:18;;;;;;;1.30;1.20;;;12.30;58.20;;;;;;5018115;28;20205;-88
2021/01/21 08:46:59;;;;;;;2.43;1.50;;;12.30;58.80;;;;;;5017923;28;20185;-87
2021/01/21 08:49:25;;;;;;;1.30;1.30;;;12.40;58.30;;;;;;5018355;28;20173;-85
2021/01/21 08:52:06;;;;;;;1.27;1.17;;;12.50;57.80;;;;;;5025653;28;20193;-87
2021/01/21 08:54:32;;;;;;;1.13;1.13;;;12.60;57.30;;;;;;5013865;28;20217;-87
2021/01/21 08:57:11;;;;;;;1.83;1.30;;;12.60;57.20;;;;;;5032776;28;20195;-88
2021/01/21 08:59:38;;;;;;;2.27;1.30;;;12.60;57.60;;;;;;5018470;28;20239;-87
2021/01/21 09:02:05;;;;;;;1.80;1.40;;;12.60;57.40;;;;;;4996285;28;20221;-89
2021/01/21 09:04:35;;;;;;;3.23;1.40;;;12.60;57.00;;;;;;4990995;28;20205;-89
2021/01/21 09:07:00;;;;;;;1.17;1.17;;;12.70;56.50;;;;;;5017085;28;20190;-87
2021/01/21 09:09:37;;;;;;;5.60;1.40;;;12.70;56.60;;;;;;5002701;28;20252;-88
2021/01/21 09:12:23;;;;;;;1.47;1.33;;;12.80;57.10;;;;;;5017119;28;20174;-89
2021/01/21 09:15:12;;;;;;;1.27;1.27;;;12.90;56.80;;;;;;5007520;28;20251;-89
2021/01/21 09:17:40;;;;;;;1.80;1.20;;;12.80;57.50;;;;;;5017018;28;20178;-88
2021/01/21 09:20:26;;;;;;;1.40;1.27;;;12.80;56.70;;;;;;5014470;28;20186;-89
2021/01/21 09:22:53;;;;;;;1.40;1.30;;;12.90;56.70;;;;;;5016592;28;20660;-89
2021/01/21 09:25:26;;;;;;;1.10;1.10;;;13.00;56.80;;;;;;5017473;28;20189;-89
2021/01/21 09:27:54;;;;;;;2.23;1.40;;;13.00;56.50;;;;;;5019450;28;20182;-89
2021/01/21 09:30:20;;;;;;;1.40;1.30;;;13.10;56.50;;;;;;5009627;28;20439;-89
2021/01/21 09:32:46;;;;;;;3.80;1.40;;;13.10;57.10;;;;;;5017937;28;20186;-88
2021/01/21 09:35:13;;;;;;;1.40;1.30;;;13.00;57.80;;;;;;5018765;28;20190;-89
2021/01/21 09:37:44;;;;;;;1.47;1.37;;;13.00;57.70;;;;;;5018835;28;20654;-89
2021/01/21 09:40:12;;;;;;;1.73;1.40;;;12.90;58.10;;;;;;5007982;28;20189;-88
2021/01/21 09:42:38;;;;;;;1.20;1.20;;;12.80;58.20;;;;;;5017744;28;20189;-89
2021/01/21 09:45:06;;;;;;;4.30;1.57;;;12.80;59.10;;;;;;5018399;28;20174;-88
2021/01/21 09:47:32;;;;;;;1.50;1.40;;;12.70;60.30;;;;;;5015533;28;20344;-88
2021/01/21 09:49:57;;;;;;;1.20;1.10;;;12.40;61.10;;;;;;4999050;28;20661;-89
2021/01/21 09:52:23;;;;;;;1.40;1.30;;;12.30;62.50;;;;;;4998862;28;20181;-88
2021/01/21 09:54:49;;;;;;;1.67;1.37;;;12.20;64.20;;;;;;5018265;28;20232;-87
2021/01/21 09:57:15;;;;;;;1.27;1.23;;;12.10;64.40;;;;;;5018872;28;20185;-88
2021/01/21 09:59:40;;;;;;;1.60;1.50;;;12.00;65.70;;;;;;5016825;28;20677;-88
2021/01/21 10:02:07;;;;;;;3.63;1.20;;;12.00;64.30;;;;;;5017021;28;20236;-88
2021/01/21 10:04:36;;;;;;;1.53;1.43;;;11.90;66.50;;;;;;5016183;28;20204;-88
2021/01/21 10:07:03;;;;;;;1.47;1.30;;;11.90;67.10;;;;;;5016761;28;20654;-88
2021/01/21 10:09:29;;;;;;;1.20;1.20;;;11.80;66.00;;;;;;5017023;28;20231;-88
2021/01/21 10:11:54;;;;;;;1.50;1.40;;;11.90;67.60;;;;;;5016057;28;20182;-88
2021/01/21 10:14:20;;;;;;;2.47;1.50;;;11.80;69.40;;;;;;5015804;28;20217;-88
2021/01/21 10:16:46;;;;;;;1.83;1.20;;;11.70;69.90;;;;;;5016242;28;20689;-88
2021/01/21 10:19:11;;;;;;;1.33;1.23;;;11.60;68.90;;;;;;5032992;28;20279;-89
2021/01/21 10:21:37;;;;;;;1.50;1.30;;;11.70;70.00;;;;;;5029092;28;20658;-89
2021/01/21 10:24:04;;;;;;;1.40;1.30;;;11.80;68.30;;;;;;4999538;28;20198;-89
2021/01/21 10:26:30;;;;;;;1.50;1.40;;;11.70;68.60;;;;;;5009050;28;20208;-89
2021/01/21 10:28:57;;;;;;;1.40;1.30;;;11.80;67.50;;;;;;5010318;28;20188;-89
2021/01/21 10:31:23;;;;;;;1.30;1.30;;;11.80;66.90;;;;;;5020844;28;20198;-88
2021/01/21 10:33:48;;;;;;;1.43;1.27;;;11.90;66.50;;;;;;5032236;28;20200;-89
2021/01/21 10:36:14;;;;;;;2.67;1.73;;;11.80;66.00;;;;;;5036915;28;20914;-88
2021/01/21 10:38:41;;;;;;;1.40;1.30;;;11.90;65.50;;;;;;5016988;28;20272;-88
2021/01/21 10:41:07;;;;;;;1.60;1.50;;;11.90;65.50;;;;;;5016835;28;20204;-87
2021/01/21 10:43:33;;;;;;;1.67;1.23;;;12.00;64.70;;;;;;5014902;28;20271;-88
2021/01/21 10:45:59;;;;;;;1.10;1.10;;;12.10;64.40;;;;;;5016004;28;20674;-89
2021/01/21 10:48:26;;;;;;;1.60;1.50;;;12.10;64.40;;;;;;5016646;28;20174;-89
2021/01/21 10:50:52;;;;;;;1.60;1.40;;;12.20;64.20;;;;;;5016114;28;20194;-89
2021/01/21 10:53:18;;;;;;;1.47;1.30;;;12.30;63.60;;;;;;5016628;28;20221;-89
2021/01/21 10:55:43;;;;;;;1.30;1.30;;;12.30;63.60;;;;;;5015597;28;20186;-89
2021/01/21 10:58:09;;;;;;;2.30;1.40;;;12.30;64.50;;;;;;5013220;28;20185;-89
2021/01/21 11:00:36;;;;;;;1.50;1.40;;;12.30;64.70;;;;;;5019281;28;20676;-90
2021/01/21 11:03:02;;;;;;;1.33;1.23;;;12.30;64.30;;;;;;5019311;28;20199;-91
2021/01/21 11:05:28;;;;;;;1.43;1.33;;;12.50;63.70;;;;;;5016842;28;20686;-90
2021/01/21 11:07:53;;;;;;;1.60;1.50;;;12.50;63.10;;;;;;5018183;28;20178;-90
2021/01/21 11:10:19;;;;;;;2.00;1.50;;;12.40;64.30;;;;;;5019187;28;20337;-88
2021/01/21 11:12:47;;;;;;;1.30;1.30;;;12.40;64.00;;;;;;5014382;28;20190;-88
2021/01/21 11:15:13;;;;;;;1.27;1.27;;;12.40;64.90;;;;;;5016784;28;20202;-89
2021/01/21 11:17:39;;;;;;;1.60;1.50;;;12.40;64.20;;;;;;5016959;28;20182;-90
2021/01/21 11:20:06;;;;;;;1.40;1.30;;;12.40;65.30;;;;;;5000537;28;20189;-91
2021/01/21 11:22:31;;;;;;;1.50;1.40;;;12.40;65.10;;;;;;5018684;28;20601;-91
2021/01/21 11:24:57;;;;;;;2.27;1.37;;;12.30;65.50;;;;;;5033058;28;20181;-89
2021/01/21 11:27:23;;;;;;;1.40;1.30;;;12.50;65.60;;;;;;5020437;28;20272;-90
2021/01/21 11:29:48;;;;;;;1.57;1.47;;;12.50;65.30;;;;;;5036432;28;20181;-90
2021/01/21 11:32:14;;;;;;;1.40;1.30;;;12.30;65.40;;;;;;5028718;28;20677;-90
2021/01/21 11:34:40;;;;;;;1.50;1.40;;;12.30;65.50;;;;;;5002154;28;20217;-89
2021/01/21 11:37:05;;;;;;;1.50;1.40;;;12.30;66.30;;;;;;5026008;28;20197;-89
2021/01/21 11:39:31;;;;;;;1.50;1.40;;;12.20;66.80;;;;;;5024377;28;20205;-88
2021/01/21 11:41:57;;;;;;;1.20;1.20;;;12.20;67.00;;;;;;5029669;28;20709;-90
2021/01/21 11:44:23;;;;;;;1.10;1.10;;;12.10;67.30;;;;;;5024249;28;20255;-89
2021/01/21 11:46:48;;;;;;;1.50;1.40;;;12.20;66.80;;;;;;5019651;28;20174;-87
2021/01/21 11:49:14;;;;;;;1.40;1.30;;;12.10;67.60;;;;;;5015553;28;20565;-89
2021/01/21 11:51:40;;;;;;;1.50;1.40;;;12.10;67.60;;;;;;5016564;28;20182;-88
2021/01/21 11:54:06;;;;;;;3.30;1.60;;;12.20;67.60;;;;;;5014817;28;20210;-88
2021/01/21 11:56:32;;;;;;;1.50;1.40;;;12.20;68.30;;;;;;5016199;28;20181;-89
2021/01/21 11:58:57;;;;;;;1.33;1.33;;;12.10;68.00;;;;;;5016869;28;20186;-88
2021/01/21 12:01:23;;;;;;;2.00;1.40;;;12.10;69.10;;;;;;5016860;28;20202;-88
2021/01/21 12:03:49;;;;;;;1.53;1.43;;;11.90;70.20;;;;;;5015799;28;20217;-88
2021/01/21 12:06:15;;;;;;;1.90;1.70;;;11.90;72.50;;;;;;5014711;28;20240;-88
2021/01/21 12:08:40;;;;;;;1.73;1.63;;;11.70;74.40;;;;;;5019423;28;20184;-88
2021/01/21 12:11:06;;;;;;;2.73;1.60;;;11.30;78.40;;;;;;5020450;28;20199;-89
2021/01/21 12:13:32;;;;;;;1.80;1.47;;;11.10;80.90;;;;;;5019337;28;20227;-87
2021/01/21 12:15:59;;;;;;;1.97;1.80;;;10.80;82.30;;;;;;5025258;28;20181;-89
2021/01/21 12:18:25;;;;;;;1.40;1.40;;;10.60;82.80;;;;;;5024869;28;20209;-87
2021/01/21 12:20:52;;;;;;;1.40;1.40;;;10.60;82.80;;;;;;5003328;28;20205;-88
2021/01/21 12:23:18;;;;;;;2.43;1.90;;;10.30;82.90;;;;;;5019027;28;20276;-89
2021/01/21 12:25:43;;;;;;;2.47;2.37;;;10.30;82.00;;;;;;5019217;28;20225;-88
2021/01/21 12:28:09;;;;;;;1.40;1.27;;;10.10;82.60;;;;;;5002041;28;20177;-89
2021/01/21 12:30:35;;;;;;;1.77;1.67;;;10.00;83.90;;;;;;5019559;28;20583;-89
2021/01/21 12:33:01;;;;;;;1.70;1.60;;;9.90;83.70;;;;;;5016839;28;20224;-87
2021/01/21 12:35:26;;;;;;;1.40;1.30;;;9.90;83.70;;;;;;5017281;28;20574;-88
2021/01/21 12:37:52;;;;;;;2.33;2.13;;;9.80;83.40;;;;;;5003024;28;20189;-88
2021/01/21 12:40:18;;;;;;;2.50;2.30;;;9.80;83.70;;;;;;5019255;28;20562;-88
2021/01/21 12:42:44;;;;;;;1.73;1.23;;;9.80;84.50;;;;;;5016247;28;20185;-88
2021/01/21 12:45:10;;;;;;;2.33;1.30;;;9.70;85.70;;;;;;5016385;28;20193;-88
2021/01/21 12:47:36;;;;;;;1.43;1.33;;;9.60;87.60;;;;;;5017994;28;20649;-88
2021/01/21 12:50:03;;;;;;;1.37;1.27;;;9.60;88.80;;;;;;5017794;28;20193;-88
2021/01/21 12:52:28;;;;;;;1.93;1.47;;;9.60;89.00;;;;;;5018186;28;20181;-88
2021/01/21 12:54:57;;;;;;;2.23;1.30;;;9.60;89.70;;;;;;5019170;28;20212;-89